Time;durP1;ratioP1;P1;durP2;ratioP2;P2;SDS_P1;SDS_P2;PMS_P1;PMS_P2;Temp;Humidity;BMP_temperature;BMP_pressure;BME280_temperature;BME280_humidity;BME280_pressure;Samples;Min_cycle;Max_cycle;Signal;HPM_P1;HPM_P2
2022/06/30 00:04:36;;;;;;;4.57;4.17;;;24.20;40.20;;;;;;10430065;28;20731;-74
2022/06/30 00:09:40;;;;;;;5.60;5.10;;;24.10;40.10;;;;;;10433078;28;20233;-74
2022/06/30 00:14:43;;;;;;;5.07;4.67;;;24.10;40.10;;;;;;10435148;28;20235;-75
2022/06/30 00:19:48;;;;;;;5.93;5.57;;;24.10;40.10;;;;;;10433317;28;20228;-74
2022/06/30 00:24:51;;;;;;;6.40;5.73;;;24.10;40.10;;;;;;10436511;28;20744;-74
2022/06/30 00:29:54;;;;;;;6.60;6.10;;;24.10;40.10;;;;;;10446487;28;20724;-75
2022/06/30 00:34:59;;;;;;;6.03;5.63;;;23.90;39.90;;;;;;10442260;28;20724;-74
2022/06/30 00:40:02;;;;;;;5.50;5.10;;;23.70;40.30;;;;;;10442162;28;20233;-74
2022/06/30 00:45:06;;;;;;;5.10;4.70;;;23.60;39.90;;;;;;10436585;28;20257;-74
2022/06/30 00:50:11;;;;;;;5.23;4.83;;;23.60;40.50;;;;;;10439954;28;20232;-74
2022/06/30 00:55:16;;;;;;;5.90;5.50;;;23.60;40.80;;;;;;10436043;28;20311;-74
2022/06/30 01:00:19;;;;;;;6.40;5.80;;;23.60;40.80;;;;;;10439319;28;23739;-74
2022/06/30 01:05:26;;;;;;;5.30;4.90;;;23.60;40.40;;;;;;10435779;28;20236;-74
2022/06/30 01:15:50;;;;;;;8.63;5.67;;;23.50;40.30;;;;;;10438927;28;20229;-74
2022/06/30 01:20:55;;;;;;;6.80;5.50;;;23.50;40.20;;;;;;10442802;28;20228;-74
2022/06/30 01:26:00;;;;;;;6.23;5.63;;;23.40;40.50;;;;;;10441301;28;20304;-74
2022/06/30 01:31:03;;;;;;;6.47;5.03;;;23.30;40.50;;;;;;10442259;28;20408;-74
2022/06/30 01:36:07;;;;;;;5.93;5.40;;;23.30;40.50;;;;;;10439015;28;20229;-74
2022/06/30 01:41:12;;;;;;;8.73;5.43;;;23.30;40.70;;;;;;10436222;28;20224;-75
2022/06/30 01:46:20;;;;;;;11.30;5.33;;;23.30;40.80;;;;;;10437911;28;20252;-75
2022/06/30 01:51:24;;;;;;;7.00;6.40;;;23.20;41.00;;;;;;10440317;28;20224;-75
2022/06/30 01:56:28;;;;;;;5.73;5.23;;;23.20;40.50;;;;;;10442045;28;20805;-75
2022/06/30 02:01:32;;;;;;;6.13;5.53;;;23.20;40.90;;;;;;10434643;28;20320;-75
2022/06/30 02:06:35;;;;;;;6.13;5.63;;;23.10;40.50;;;;;;10439551;28;20229;-75
2022/06/30 02:11:40;;;;;;;6.40;5.80;;;23.10;40.60;;;;;;10437840;28;20231;-75
2022/06/30 02:16:44;;;;;;;7.00;6.40;;;23.00;40.90;;;;;;10436330;28;20237;-75
2022/06/30 02:21:48;;;;;;;5.90;5.30;;;22.90;40.80;;;;;;10436439;28;20233;-75
2022/06/30 02:26:52;;;;;;;6.13;5.53;;;22.80;40.70;;;;;;10431375;28;20238;-74
2022/06/30 02:31:55;;;;;;;5.33;5.00;;;22.70;41.30;;;;;;10440170;28;20239;-75
2022/06/30 02:36:59;;;;;;;6.37;5.13;;;22.70;41.10;;;;;;10436646;28;20228;-74
2022/06/30 02:42:04;;;;;;;6.07;5.57;;;22.70;41.30;;;;;;10433446;28;20537;-74
2022/06/30 02:47:08;;;;;;;6.70;6.20;;;22.70;41.60;;;;;;10437584;28;20354;-74
2022/06/30 02:52:11;;;;;;;5.70;5.30;;;22.60;41.00;;;;;;10441312;28;20217;-74
2022/06/30 02:57:16;;;;;;;5.73;5.33;;;22.50;41.30;;;;;;10432776;28;20232;-75
2022/06/30 03:02:19;;;;;;;5.07;4.60;;;22.40;41.70;;;;;;10437748;28;20227;-75
2022/06/30 03:07:22;;;;;;;5.50;5.00;;;22.30;41.40;;;;;;10431955;28;20233;-75
2022/06/30 03:12:28;;;;;;;5.53;5.03;;;22.40;41.50;;;;;;10437922;28;20253;-75
2022/06/30 03:17:31;;;;;;;5.30;4.90;;;22.40;41.80;;;;;;10439547;28;20232;-75
2022/06/30 03:22:34;;;;;;;6.13;4.87;;;22.40;41.50;;;;;;10431642;28;20614;-75
2022/06/30 03:27:39;;;;;;;6.67;4.73;;;22.30;41.30;;;;;;10438080;28;20230;-75
2022/06/30 03:32:42;;;;;;;5.87;4.97;;;22.30;41.70;;;;;;10429889;28;20231;-75
2022/06/30 03:37:46;;;;;;;8.23;5.23;;;22.30;41.50;;;;;;10434051;28;20597;-75
2022/06/30 03:42:50;;;;;;;9.13;6.20;;;22.30;41.50;;;;;;10436455;28;20225;-75
2022/06/30 03:47:54;;;;;;;7.20;5.70;;;22.30;41.70;;;;;;10438353;28;20258;-75
2022/06/30 03:52:57;;;;;;;6.40;5.80;;;22.20;41.30;;;;;;10434356;28;20239;-75
2022/06/30 03:58:02;;;;;;;6.07;5.60;;;22.10;41.50;;;;;;10433690;28;20323;-75
2022/06/30 04:03:06;;;;;;;5.83;5.17;;;22.10;42.20;;;;;;10430427;28;20220;-71
2022/06/30 04:08:10;;;;;;;5.80;5.30;;;22.00;42.10;;;;;;10424365;28;21115;-71
2022/06/30 04:13:15;;;;;;;6.87;6.10;;;21.90;42.00;;;;;;10425722;28;20221;-71
2022/06/30 04:18:18;;;;;;;6.03;5.40;;;21.90;43.00;;;;;;10423885;28;20225;-71
2022/06/30 04:23:21;;;;;;;6.67;6.07;;;21.90;42.50;;;;;;10429733;28;20236;-71
2022/06/30 04:28:26;;;;;;;7.97;6.17;;;21.90;42.80;;;;;;10423495;28;20229;-71
2022/06/30 04:33:30;;;;;;;8.10;5.20;;;21.90;43.40;;;;;;10428098;28;20877;-71
2022/06/30 04:38:33;;;;;;;7.33;6.20;;;21.90;43.00;;;;;;10418033;28;20235;-71
2022/06/30 04:43:38;;;;;;;7.17;6.47;;;21.90;43.30;;;;;;10422975;28;20229;-71
2022/06/30 04:48:41;;;;;;;7.30;6.70;;;21.90;44.00;;;;;;10425309;28;20220;-71
2022/06/30 04:53:45;;;;;;;6.17;5.57;;;21.90;43.90;;;;;;10426231;28;20736;-71
2022/06/30 04:58:49;;;;;;;7.53;6.83;;;21.90;43.80;;;;;;10423137;28;20237;-71
2022/06/30 05:03:53;;;;;;;8.73;7.93;;;22.00;44.80;;;;;;10422223;28;20228;-71
2022/06/30 05:08:56;;;;;;;8.00;7.20;;;22.10;44.40;;;;;;10419726;28;20241;-71
2022/06/30 05:14:01;;;;;;;8.20;7.40;;;22.10;44.30;;;;;;10430745;28;20226;-71
2022/06/30 05:19:04;;;;;;;7.90;7.20;;;22.20;45.40;;;;;;10422011;28;20229;-72
2022/06/30 05:29:30;;;;;;;7.20;6.60;;;22.40;45.00;;;;;;10429498;28;20221;-71
2022/06/30 05:34:35;;;;;;;7.37;6.87;;;22.50;45.30;;;;;;10426302;28;20225;-71
2022/06/30 05:39:38;;;;;;;8.57;7.87;;;22.70;45.10;;;;;;10436299;28;20237;-72
2022/06/30 05:44:43;;;;;;;7.87;7.27;;;22.80;45.10;;;;;;10431693;28;20340;-72
2022/06/30 05:49:46;;;;;;;8.27;7.40;;;22.90;45.40;;;;;;10424586;28;20225;-72
2022/06/30 05:54:49;;;;;;;8.43;7.73;;;23.10;45.40;;;;;;10420036;28;20867;-72
2022/06/30 05:59:54;;;;;;;8.73;7.93;;;23.20;45.60;;;;;;10430397;28;20320;-72
2022/06/30 06:04:57;;;;;;;8.27;7.47;;;23.40;46.10;;;;;;10432837;28;20224;-72
2022/06/30 06:10:00;;;;;;;7.93;7.17;;;23.50;45.60;;;;;;10433086;28;20244;-72
2022/06/30 06:15:15;;;;;;;7.93;7.30;;;23.60;45.60;;;;;;10431748;28;20596;-72
2022/06/30 06:20:19;;;;;;;8.50;7.60;;;23.80;45.90;;;;;;10430039;28;20228;-72
2022/06/30 06:25:23;;;;;;;7.07;6.47;;;24.00;45.70;;;;;;10429936;28;20233;-72
2022/06/30 06:30:27;;;;;;;6.13;5.67;;;24.10;45.30;;;;;;10425943;28;20220;-71
2022/06/30 06:35:31;;;;;;;6.20;5.70;;;24.30;45.40;;;;;;10411268;28;20212;-72
2022/06/30 06:40:34;;;;;;;7.03;6.40;;;24.40;45.30;;;;;;10419665;28;20224;-71
2022/06/30 06:45:39;;;;;;;7.20;6.60;;;24.60;45.20;;;;;;10419113;28;20220;-71
2022/06/30 06:50:42;;;;;;;6.90;6.30;;;24.80;45.60;;;;;;10419579;28;20225;-71
2022/06/30 06:55:45;;;;;;;6.57;6.07;;;24.90;45.50;;;;;;10420727;28;20282;-72
2022/06/30 07:00:53;;;;;;;6.73;6.13;;;25.10;45.40;;;;;;10415812;28;20796;-72
2022/06/30 07:05:56;;;;;;;6.17;5.53;;;25.30;45.40;;;;;;10421779;28;20236;-72
2022/06/30 07:11:00;;;;;;;7.10;6.50;;;25.50;45.30;;;;;;10421318;28;20221;-72
2022/06/30 07:16:05;;;;;;;7.07;6.47;;;25.70;44.90;;;;;;10423166;28;21098;-72
2022/06/30 07:21:08;;;;;;;6.43;5.90;;;25.80;44.60;;;;;;10423280;28;20221;-71
2022/06/30 07:26:12;;;;;;;6.80;6.20;;;26.00;44.60;;;;;;10424984;28;20253;-71
2022/06/30 07:31:16;;;;;;;6.13;5.63;;;26.20;44.40;;;;;;10424422;28;20717;-71
2022/06/30 07:36:20;;;;;;;6.27;5.80;;;26.40;43.90;;;;;;10422792;28;20245;-71
2022/06/30 07:41:24;;;;;;;5.40;4.90;;;26.60;43.80;;;;;;10423385;28;20236;-71
2022/06/30 07:46:29;;;;;;;5.30;4.80;;;26.80;43.70;;;;;;10422566;28;20232;-71
2022/06/30 07:51:36;;;;;;;4.80;4.37;;;27.00;42.80;;;;;;10427603;28;20301;-71
2022/06/30 07:56:40;;;;;;;4.43;4.13;;;27.20;42.90;;;;;;10423937;28;20229;-71
2022/06/30 08:01:44;;;;;;;5.00;4.60;;;27.30;42.40;;;;;;10423481;28;20860;-71
2022/06/30 08:06:48;;;;;;;5.10;4.60;;;27.50;41.90;;;;;;10419764;28;20242;-71
2022/06/30 08:11:53;;;;;;;5.23;4.53;;;27.80;42.20;;;;;;10421082;28;20586;-70
2022/06/30 08:16:58;;;;;;;4.47;4.07;;;28.00;41.90;;;;;;10424487;28;20233;-70
2022/06/30 08:22:01;;;;;;;4.40;4.00;;;28.30;40.80;;;;;;10421396;28;20249;-71
2022/06/30 08:27:05;;;;;;;5.07;4.47;;;28.50;41.00;;;;;;10416267;28;20248;-71
2022/06/30 08:32:10;;;;;;;4.80;4.50;;;28.60;40.30;;;;;;10418273;28;20229;-71
2022/06/30 08:37:14;;;;;;;4.53;4.23;;;28.90;39.10;;;;;;10415201;28;20236;-70
2022/06/30 08:42:21;;;;;;;5.17;4.67;;;29.00;39.40;;;;;;10417011;28;20229;-71
2022/06/30 08:47:26;;;;;;;5.03;4.10;;;29.20;37.70;;;;;;10416521;28;20243;-71
2022/06/30 08:52:31;;;;;;;4.60;4.20;;;29.40;38.90;;;;;;10425210;28;20235;-71
2022/06/30 08:57:34;;;;;;;4.40;4.10;;;29.50;38.70;;;;;;10424281;28;20228;-71
2022/06/30 09:02:39;;;;;;;5.03;4.63;;;29.80;38.60;;;;;;10422717;28;20225;-70
2022/06/30 09:07:42;;;;;;;4.80;4.37;;;30.00;36.90;;;;;;10424024;28;20263;-70
2022/06/30 09:13:06;;;;;;;5.00;4.60;;;30.20;37.30;;;;;;10427481;28;21182;-70
2022/06/30 09:18:22;;;;;;;4.37;4.07;;;30.30;36.80;;;;;;10426055;28;20308;-70
2022/06/30 09:23:27;;;;;;;4.93;4.43;;;30.40;35.70;;;;;;10429015;28;20235;-70
2022/06/30 09:28:41;;;;;;;5.07;4.67;;;30.50;35.80;;;;;;10425492;28;20271;-70
2022/06/30 09:34:18;;;;;;;4.97;4.57;;;30.70;34.70;;;;;;10421821;28;20225;-70
2022/06/30 09:39:23;;;;;;;4.80;4.40;;;30.80;34.00;;;;;;10421876;28;20718;-70
2022/06/30 09:44:28;;;;;;;6.00;4.30;;;30.90;34.60;;;;;;10417284;28;20595;-70
2022/06/30 09:49:34;;;;;;;4.77;4.40;;;31.00;34.80;;;;;;10426176;28;20248;-70
2022/06/30 09:54:38;;;;;;;5.20;4.70;;;31.10;33.60;;;;;;10423450;28;20239;-70
2022/06/30 09:59:41;;;;;;;4.70;4.30;;;31.20;34.00;;;;;;10422096;28;20252;-70
2022/06/30 10:04:55;;;;;;;4.43;4.10;;;31.30;33.10;;;;;;10420968;28;20221;-70
2022/06/30 10:09:58;;;;;;;4.80;4.40;;;31.40;32.50;;;;;;10425223;28;20225;-70
2022/06/30 10:15:02;;;;;;;4.60;4.20;;;31.50;32.50;;;;;;10422433;28;20307;-71
2022/06/30 10:20:08;;;;;;;4.80;4.27;;;31.70;32.70;;;;;;10421851;28;20256;-70
2022/06/30 10:25:11;;;;;;;6.10;4.60;;;31.80;31.90;;;;;;10419721;28;20232;-70
2022/06/30 10:30:16;;;;;;;4.50;4.10;;;31.90;32.50;;;;;;10426386;28;20228;-70
2022/06/30 10:35:42;;;;;;;4.57;4.23;;;32.00;31.30;;;;;;10422179;28;20230;-70
2022/06/30 10:40:54;;;;;;;4.67;4.03;;;32.10;30.60;;;;;;10418848;28;20232;-70
2022/06/30 10:46:00;;;;;;;4.10;3.80;;;32.20;30.30;;;;;;10419835;28;20225;-70
2022/06/30 10:51:14;;;;;;;4.37;4.07;;;32.20;30.70;;;;;;10421607;28;20280;-70
2022/06/30 10:56:19;;;;;;;4.37;3.83;;;32.30;30.00;;;;;;10427459;28;21039;-70
2022/06/30 11:01:23;;;;;;;4.40;4.00;;;32.40;30.60;;;;;;10420172;28;20225;-70
2022/06/30 11:07:07;;;;;;;4.37;4.00;;;32.60;30.40;;;;;;10424886;28;20246;-70
2022/06/30 11:12:12;;;;;;;4.40;4.00;;;32.70;29.60;;;;;;10420712;28;20224;-71
2022/06/30 11:17:17;;;;;;;4.50;4.03;;;32.70;29.30;;;;;;10422576;28;20602;-70
2022/06/30 11:22:20;;;;;;;4.33;3.93;;;32.80;29.50;;;;;;10423965;28;20229;-70
2022/06/30 11:27:28;;;;;;;4.53;4.07;;;32.80;29.30;;;;;;10424939;28;20942;-70
2022/06/30 11:32:31;;;;;;;4.17;3.87;;;32.80;28.50;;;;;;10415651;28;20229;-72
2022/06/30 11:37:35;;;;;;;3.93;3.63;;;32.80;29.40;;;;;;10413884;28;20230;-70
2022/06/30 11:42:40;;;;;;;3.90;3.60;;;32.80;28.70;;;;;;10410021;28;20228;-70
2022/06/30 11:47:43;;;;;;;4.07;3.73;;;32.90;28.30;;;;;;10408392;28;20224;-69
2022/06/30 11:52:54;;;;;;;3.83;3.53;;;33.00;28.40;;;;;;10409494;28;20241;-70
2022/06/30 11:57:58;;;;;;;4.37;3.70;;;33.20;28.00;;;;;;10409890;28;20792;-70
2022/06/30 12:03:03;;;;;;;4.33;3.63;;;33.20;27.40;;;;;;10410209;28;20217;-71
2022/06/30 12:08:07;;;;;;;4.17;3.77;;;33.20;27.90;;;;;;10412462;28;20262;-70
2022/06/30 12:13:11;;;;;;;3.77;3.47;;;33.20;27.60;;;;;;10405958;28;20313;-70
2022/06/30 12:18:15;;;;;;;3.70;3.40;;;33.20;26.60;;;;;;10410887;28;20791;-71
2022/06/30 12:23:18;;;;;;;3.50;3.30;;;33.20;27.00;;;;;;10406768;28;20244;-71
2022/06/30 12:28:25;;;;;;;3.70;3.30;;;33.20;26.80;;;;;;10406475;28;20260;-72
2022/06/30 12:33:39;;;;;;;3.63;3.33;;;33.20;25.10;;;;;;10406154;28;20236;-71
2022/06/30 12:38:42;;;;;;;3.50;3.20;;;33.20;26.10;;;;;;10406220;28;20233;-71
2022/06/30 12:43:50;;;;;;;3.53;3.33;;;33.30;26.80;;;;;;10413067;28;20224;-71
2022/06/30 12:48:55;;;;;;;4.90;3.73;;;33.40;25.80;;;;;;10421883;28;20228;-74
2022/06/30 12:54:00;;;;;;;4.50;3.70;;;33.50;26.00;;;;;;10421863;28;20600;-74
2022/06/30 12:59:06;;;;;;;3.53;3.23;;;33.60;26.00;;;;;;10415665;28;20229;-74
2022/06/30 13:04:20;;;;;;;3.93;3.43;;;33.60;25.60;;;;;;10419516;28;20236;-74
2022/06/30 13:09:26;;;;;;;3.87;3.27;;;33.70;25.10;;;;;;10420923;28;20241;-74
2022/06/30 13:14:32;;;;;;;3.67;3.37;;;33.80;25.30;;;;;;10418705;28;20594;-73
2022/06/30 13:19:36;;;;;;;4.77;3.40;;;33.80;25.20;;;;;;10420762;28;20225;-74
2022/06/30 13:24:39;;;;;;;3.80;3.33;;;33.90;25.20;;;;;;10418495;28;20235;-74
2022/06/30 13:29:44;;;;;;;3.83;3.27;;;33.90;25.20;;;;;;10421283;28;20231;-74
2022/06/30 13:34:47;;;;;;;3.90;3.47;;;34.00;24.70;;;;;;10424403;28;20305;-74
2022/06/30 13:39:50;;;;;;;3.80;3.50;;;34.10;24.80;;;;;;10429606;28;20610;-74
2022/06/30 13:44:55;;;;;;;3.50;3.20;;;34.10;24.90;;;;;;10427531;28;20235;-74
2022/06/30 13:49:58;;;;;;;4.43;3.60;;;34.10;24.30;;;;;;10423618;28;20762;-75
2022/06/30 13:55:01;;;;;;;3.80;3.50;;;34.20;24.60;;;;;;10423803;28;20217;-74
2022/06/30 14:00:07;;;;;;;3.90;3.60;;;34.20;24.40;;;;;;10423335;28;20214;-75
2022/06/30 14:05:11;;;;;;;3.77;3.30;;;34.20;23.30;;;;;;10429333;28;20228;-74
2022/06/30 14:10:14;;;;;;;4.00;3.10;;;34.30;24.00;;;;;;10426599;28;20232;-74
2022/06/30 14:15:20;;;;;;;4.00;3.60;;;34.30;23.70;;;;;;10415804;28;20222;-73
2022/06/30 14:20:23;;;;;;;3.53;3.20;;;34.20;23.30;;;;;;10396444;28;20759;-75
2022/06/30 14:25:27;;;;;;;4.23;3.37;;;34.10;23.60;;;;;;10420826;28;20384;-73
2022/06/30 14:30:32;;;;;;;4.03;3.30;;;34.20;23.70;;;;;;10429593;28;20908;-75
2022/06/30 14:35:35;;;;;;;3.87;3.57;;;34.20;23.30;;;;;;10422431;28;20221;-73
2022/06/30 14:40:38;;;;;;;5.10;3.57;;;34.20;23.80;;;;;;10426140;28;20228;-72
2022/06/30 14:45:43;;;;;;;3.13;2.93;;;34.20;23.70;;;;;;10420626;28;20220;-73
2022/06/30 14:50:46;;;;;;;4.17;3.30;;;34.20;23.30;;;;;;10423603;28;20230;-73
2022/06/30 14:55:50;;;;;;;4.33;3.40;;;34.30;23.30;;;;;;10425828;28;20229;-72
2022/06/30 15:00:54;;;;;;;4.23;3.40;;;34.30;23.30;;;;;;10428130;28;20229;-71
2022/06/30 15:06:01;;;;;;;5.63;3.57;;;34.30;23.30;;;;;;10425021;28;20233;-71
2022/06/30 15:11:04;;;;;;;5.67;3.50;;;34.30;23.30;;;;;;10424629;28;20240;-72
2022/06/30 15:16:09;;;;;;;3.73;3.37;;;34.30;23.30;;;;;;10439601;28;20280;-74
2022/06/30 15:26:35;;;;;;;3.60;3.30;;;34.20;23.30;;;;;;10431959;28;20231;-71
2022/06/30 15:31:41;;;;;;;3.13;2.93;;;34.20;23.30;;;;;;10426612;28;20751;-70
2022/06/30 15:36:45;;;;;;;4.20;3.30;;;34.20;23.10;;;;;;10410108;28;20233;-70
2022/06/30 15:41:48;;;;;;;3.27;3.07;;;34.10;23.20;;;;;;10431626;28;20231;-71
2022/06/30 15:46:56;;;;;;;3.60;3.30;;;33.90;23.10;;;;;;10437345;28;20237;-71
2022/06/30 15:52:03;;;;;;;3.37;3.17;;;33.90;23.10;;;;;;10420353;28;20240;-72
2022/06/30 15:57:07;;;;;;;3.50;2.97;;;33.80;23.10;;;;;;10425693;28;20732;-72
2022/06/30 16:02:13;;;;;;;5.13;3.37;;;33.60;23.20;;;;;;10426650;28;20249;-72
2022/06/30 16:07:17;;;;;;;3.73;3.17;;;33.60;23.40;;;;;;10427457;28;20243;-72
2022/06/30 16:12:21;;;;;;;3.67;3.30;;;33.50;23.60;;;;;;10436843;28;20728;-72
2022/06/30 16:17:26;;;;;;;3.67;3.27;;;33.40;23.80;;;;;;10433323;28;20229;-72
2022/06/30 16:22:29;;;;;;;3.97;3.43;;;33.30;23.60;;;;;;10425603;28;20230;-71
2022/06/30 16:27:33;;;;;;;5.57;3.27;;;33.20;23.90;;;;;;10427377;28;21171;-74
2022/06/30 16:32:38;;;;;;;4.13;3.40;;;33.10;24.00;;;;;;10426527;28;20240;-74
2022/06/30 16:37:42;;;;;;;3.73;3.33;;;33.10;24.10;;;;;;10420872;28;20225;-72
2022/06/30 16:42:45;;;;;;;3.70;3.40;;;33.10;24.10;;;;;;10417948;28;20221;-73
2022/06/30 16:47:50;;;;;;;3.73;3.50;;;33.00;24.10;;;;;;10421670;28;20225;-74
2022/06/30 16:52:57;;;;;;;4.07;3.60;;;32.90;24.70;;;;;;10427533;28;20225;-73
2022/06/30 16:58:00;;;;;;;4.10;3.80;;;32.90;25.40;;;;;;10418497;28;20233;-73
2022/06/30 17:03:07;;;;;;;4.17;3.57;;;32.90;25.80;;;;;;10416235;28;20233;-72
2022/06/30 17:08:11;;;;;;;5.23;3.90;;;32.80;27.50;;;;;;10434047;28;20290;-73
2022/06/30 17:13:15;;;;;;;3.60;3.30;;;32.80;26.80;;;;;;10422441;28;20224;-71
2022/06/30 17:18:19;;;;;;;4.10;3.73;;;32.70;26.50;;;;;;10427771;28;20233;-73
2022/06/30 17:23:23;;;;;;;4.17;3.77;;;32.50;26.80;;;;;;10425171;28;20229;-73
2022/06/30 17:28:26;;;;;;;3.83;3.53;;;32.50;26.70;;;;;;10445339;28;20240;-74
2022/06/30 17:33:31;;;;;;;3.90;3.60;;;32.30;26.30;;;;;;10428451;28;20236;-75
2022/06/30 17:38:36;;;;;;;4.10;3.70;;;32.30;26.80;;;;;;10425353;28;20321;-73
2022/06/30 17:43:40;;;;;;;4.03;3.63;;;32.10;26.30;;;;;;10427837;28;20235;-74
2022/06/30 17:48:44;;;;;;;4.43;3.70;;;32.10;26.40;;;;;;10427748;28;20233;-75
2022/06/30 17:53:48;;;;;;;4.00;3.67;;;32.00;26.40;;;;;;10419834;28;20221;-73
2022/06/30 17:58:51;;;;;;;6.00;3.50;;;31.90;26.50;;;;;;10423449;28;20724;-75
2022/06/30 18:03:56;;;;;;;4.03;3.73;;;31.90;26.70;;;;;;10428257;28;20781;-75
2022/06/30 18:14:21;;;;;;;4.43;4.03;;;31.70;27.00;;;;;;10421127;28;20232;-74
2022/06/30 18:19:26;;;;;;;4.40;3.87;;;31.50;27.20;;;;;;10426501;28;20655;-73
2022/06/30 18:24:29;;;;;;;4.20;3.80;;;31.40;27.60;;;;;;10426915;28;20237;-75
2022/06/30 18:29:33;;;;;;;4.00;3.60;;;31.40;27.60;;;;;;10428535;28;20233;-75
2022/06/30 18:34:38;;;;;;;5.27;3.70;;;31.30;27.80;;;;;;10429033;28;20678;-73
2022/06/30 18:39:41;;;;;;;4.00;3.70;;;31.30;28.10;;;;;;10423612;28;20229;-73
2022/06/30 18:44:45;;;;;;;4.43;3.90;;;31.30;28.00;;;;;;10425393;28;20221;-73
2022/06/30 18:49:49;;;;;;;4.50;4.20;;;31.20;28.20;;;;;;10423708;28;20241;-73
2022/06/30 18:54:53;;;;;;;4.60;4.20;;;31.10;28.70;;;;;;10423012;28;20233;-73
2022/06/30 18:59:56;;;;;;;4.43;4.03;;;31.00;28.30;;;;;;10420798;28;20237;-73
2022/06/30 19:05:00;;;;;;;4.90;4.50;;;30.90;28.30;;;;;;10426514;28;20222;-73
2022/06/30 19:10:04;;;;;;;5.43;4.40;;;30.80;29.00;;;;;;10430001;28;20220;-74
2022/06/30 19:15:08;;;;;;;4.93;4.43;;;30.70;28.60;;;;;;10431438;28;21753;-73
2022/06/30 19:20:15;;;;;;;4.90;4.50;;;30.70;28.70;;;;;;10420041;28;20231;-73
2022/06/30 19:25:18;;;;;;;5.23;4.60;;;30.60;29.10;;;;;;10418504;28;20342;-72
2022/06/30 19:30:22;;;;;;;4.80;4.40;;;30.50;29.00;;;;;;10411438;28;20244;-74
2022/06/30 19:35:29;;;;;;;4.97;4.47;;;30.50;29.20;;;;;;10418062;28;20225;-74
2022/06/30 19:40:35;;;;;;;4.27;3.97;;;30.40;30.20;;;;;;10413008;28;20229;-74
2022/06/30 19:45:38;;;;;;;4.63;4.33;;;30.30;29.70;;;;;;10404977;28;20282;-73
2022/06/30 19:50:43;;;;;;;5.07;4.60;;;30.20;29.80;;;;;;10415230;28;20225;-73
2022/06/30 19:55:47;;;;;;;5.53;4.77;;;30.10;30.00;;;;;;10420706;28;20391;-74
2022/06/30 20:00:50;;;;;;;4.90;4.37;;;29.90;29.90;;;;;;10422372;28;20232;-72
2022/06/30 20:05:55;;;;;;;5.03;4.53;;;29.80;30.20;;;;;;10430451;28;20232;-73
2022/06/30 20:16:18;;;;;;;5.60;5.20;;;29.60;31.30;;;;;;10432280;28;20244;-71
2022/06/30 20:21:24;;;;;;;5.63;5.10;;;29.50;31.20;;;;;;10427338;28;20229;-70
2022/06/30 20:26:32;;;;;;;6.20;5.60;;;29.40;31.20;;;;;;10432379;28;20320;-71
2022/06/30 20:31:35;;;;;;;7.30;6.70;;;29.20;31.00;;;;;;10430713;28;20228;-70
2022/06/30 20:36:40;;;;;;;6.83;6.13;;;29.00;31.00;;;;;;10426131;28;20256;-70
2022/06/30 20:41:43;;;;;;;6.50;5.47;;;28.80;32.00;;;;;;10433231;28;20248;-71
2022/06/30 20:46:50;;;;;;;5.70;5.30;;;28.60;32.00;;;;;;10442043;28;20235;-70
2022/06/30 20:51:55;;;;;;;5.67;5.17;;;28.50;32.30;;;;;;10442570;28;20244;-70
2022/06/30 20:56:59;;;;;;;6.20;5.70;;;28.50;32.70;;;;;;10434250;28;20229;-71
2022/06/30 21:02:02;;;;;;;6.70;6.10;;;28.40;32.70;;;;;;10391429;28;1238437;-70
2022/06/30 21:07:07;;;;;;;6.60;5.97;;;28.40;32.90;;;;;;10434925;28;20622;-71
2022/06/30 21:12:11;;;;;;;6.93;6.30;;;28.40;33.50;;;;;;10437543;28;20235;-71
2022/06/30 21:17:14;;;;;;;6.20;5.70;;;28.30;33.10;;;;;;10438596;28;20287;-70
2022/06/30 21:22:19;;;;;;;6.97;6.30;;;28.20;33.00;;;;;;10435295;28;20284;-71
2022/06/30 21:27:23;;;;;;;7.40;6.70;;;28.10;33.80;;;;;;10441076;28;20282;-70
2022/06/30 21:32:26;;;;;;;9.90;9.10;;;28.00;33.60;;;;;;10423845;28;20239;-71
2022/06/30 21:37:31;;;;;;;10.10;8.17;;;27.80;33.60;;;;;;10423763;28;20236;-71
2022/06/30 21:42:35;;;;;;;7.57;7.00;;;27.70;34.30;;;;;;10436247;28;20224;-71
2022/06/30 21:47:38;;;;;;;7.50;6.80;;;27.50;34.00;;;;;;10438033;28;20236;-71
2022/06/30 21:52:43;;;;;;;6.73;6.20;;;27.40;34.10;;;;;;10431208;28;20305;-71
2022/06/30 21:57:46;;;;;;;6.43;5.83;;;27.20;35.00;;;;;;10429041;28;20752;-71
2022/06/30 22:07:54;;;;;;;6.10;5.60;;;26.90;34.90;;;;;;10232701;28;20713;-69
2022/06/30 22:12:57;;;;;;;5.97;5.47;;;26.80;35.60;;;;;;10248273;28;20635;-69
2022/06/30 22:18:02;;;;;;;6.00;5.47;;;26.70;35.30;;;;;;10243681;28;20302;-69
2022/06/30 22:23:07;;;;;;;6.30;5.80;;;26.60;35.50;;;;;;10247033;28;20228;-69
2022/06/30 22:28:10;;;;;;;6.00;5.50;;;26.60;36.10;;;;;;10245644;28;20284;-69
2022/06/30 22:33:13;;;;;;;6.30;5.80;;;26.50;35.40;;;;;;10241357;28;20251;-70
2022/06/30 22:38:18;;;;;;;5.67;5.10;;;26.50;35.80;;;;;;10238671;28;20775;-69
2022/06/30 22:43:21;;;;;;;5.70;5.00;;;26.40;36.30;;;;;;10245729;28;20286;-69
2022/06/30 22:48:24;;;;;;;5.73;5.17;;;26.50;35.90;;;;;;10238914;28;20670;-69
2022/06/30 22:53:29;;;;;;;5.67;5.17;;;26.50;36.00;;;;;;10241917;28;20228;-69
2022/06/30 22:58:32;;;;;;;6.87;5.50;;;26.50;36.60;;;;;;10238043;28;20244;-69
2022/06/30 23:03:35;;;;;;;5.43;4.77;;;26.50;36.00;;;;;;10247506;28;20248;-69
2022/06/30 23:08:40;;;;;;;5.73;4.73;;;26.40;35.90;;;;;;10316029;28;20234;-69
2022/06/30 23:13:44;;;;;;;6.40;4.43;;;26.30;36.50;;;;;;10315277;28;20249;-73
2022/06/30 23:18:47;;;;;;;4.00;3.60;;;26.10;36.10;;;;;;10317675;28;20634;-73
2022/06/30 23:23:51;;;;;;;4.33;3.93;;;26.10;36.40;;;;;;10323779;28;20237;-72
2022/06/30 23:28:55;;;;;;;6.17;3.50;;;26.10;37.00;;;;;;10319892;28;20699;-73
2022/06/30 23:33:58;;;;;;;3.67;3.37;;;26.10;36.40;;;;;;10316881;28;20332;-73
2022/06/30 23:39:02;;;;;;;4.07;3.20;;;26.10;36.00;;;;;;10316302;28;20708;-71
2022/06/30 23:44:06;;;;;;;4.90;4.07;;;26.10;36.30;;;;;;10318527;28;20260;-71
2022/06/30 23:49:09;;;;;;;5.07;4.20;;;26.00;36.20;;;;;;10320149;28;20468;-71
2022/06/30 23:54:13;;;;;;;3.80;3.50;;;25.80;36.30;;;;;;10316955;28;20223;-70
2022/06/30 23:59:17;;;;;;;4.57;3.27;;;25.70;36.40;;;;;;10316933;28;20283;-71
